Impacts TAF Board
For situational awareness. Not to be used for flight planning purposes.
IDs:

KBOS - Boston/Logan Intl, MA, US

Issued at 1737 UTC 20 Oct 2018
Updated at 2057 UTC 20 Oct 2018
Potential Impact None Slight Moderate High
Time2054Z 20/21Z 20/22Z 20/23Z 21/00Z 21/01Z 21/02Z 21/03Z 21/04Z 21/05Z 21/06Z 21/07Z 21/08Z 21/09Z>>
Type OBS PRVL PRVL PRVL PRVL PRVL PRVL PRVL PRVL PRVL PRVL PRVL PRVL PRVL
VIS 10 >6 >6 >6 >6 >6 >6 >6 >6 >6 >6 >6 >6 >6
CIG 80 -- -- -- -- -- -- -- -- 60 60 60 60 25
Cover BKN SCT SCT SCT SCT SCT SCT SCT SCT BKN BKN BKN BKN BKN
FltCat VFR VFR VFR VFR VFR VFR VFR VFR VFR VFR VFR VFR VFR MVFR
WX -- -- -- -- -- -- -- -- -- -- -- -- -- VCSH
WDir 260 250 250 280 280 280 280 280 280 300 300 300 300 340
WSpd 9 12 12 8 8 8 8 8 8 7 7 7 7 8
WGst -- 20 20 -- -- -- -- -- -- -- -- -- -- --
Raw TAF
KBOS 201737Z 2018/2124 25012G20KT P6SM SCT035 SCT250
  FM202300 28008KT P6SM SCT060 SCT250
  FM210500 30007KT P6SM BKN060
  FM210900 34008KT P6SM VCSH BKN025
  FM211100 34012G22KT P6SM VCSH BKN025
  FM211300 34014G23KT P6SM VCSH BKN035
  FM211500 33016G26KT P6SM SCT060


Raw METAR
KBOS 202054Z 26009KT 10SM SCT044 BKN080 BKN250 17/07 A2955 RMK AO2 SLP007 T01720072 55011
KBOS 201954Z 23013KT 10SM FEW044 SCT060 BKN250 18/07 A2955 RMK AO2 SLP006 T01780072
KBOS 201854Z 28011KT 10SM FEW045 BKN060 18/07 A2957 RMK AO2 SLP013 T01780072
KBOS 201754Z 27012KT 10SM BKN041 BKN050 BKN250 18/08 A2959 RMK AO2 SLP018 T01780083 10183 20144 58023

METAR Board
Radar Display
Forecast Discussion
For situational awareness. Not to be used for flight planning purposes.